Arjeplog, Sweden

11:18 PM CEST on July 30, 2014 (GMT +0200)
Arvidsjaur (ESNX) Elev 1243 ft | 65.59 °N, 19.28 °E | Change Station

Current weather conditions updated 28 minutes ago

Mostly Cloudy
Mostly Cloudy
63 °F
Feels Like 63 °F
N
14
Wind Variable Wind from SE

Tomorrow is forecast to be Warmer than today. Cloudy with rain.

Today
High -- | Low -- °F
--% Chance of Precip.
Yesterday
High -- | Low -- °F
Precip. -- in
3:24 AM 10:21 PM
Waxing Crescent, 13% visible
Pressure 29.56 in
Visibility 6.2 miles
Clouds Few 1100 ft
Scattered Clouds 1600 ft
Mostly Cloudy 2600 ft
Dew Point 59 °F
Humidity 88%
Rainfall 0.00 in
Snow Depth Not available.
UV 0 out of 12
Pollen Not available.
Air Quality Not available.
Flu Activity Not available.
METAR ESNX 302050Z AUTO 13012KT 9999NDV FEW011/// SCT016/// BKN026/// 17/15 Q1001

More Conditions Fewer Conditions

Pressure 29.56 in
Visibility 6.2 miles
Clouds Few 1100 ft
Scattered Clouds 1600 ft
Mostly Cloudy 2600 ft
Dew Point 59 °F
Humidity 88%
Rainfall 0.00 in
Snow Depth Not available.
UV 0 out of 12
Pollen Not available.
Air Quality Not available.
Flu Activity Not available.
METAR ESNX 302050Z AUTO 13012KT 9999NDV FEW011/// SCT016/// BKN026/// 17/15 Q1001

More Conditions Fewer Conditions

10-Day Weather Forecast

Almanac

Astronomy

Jul. 30, 2014 Rise Set
Actual Time 3:24 AM CEST 10:21 PM CEST
Civil Twilight 1:27 AM CEST 12:22 AM CEST
Nautical Twilight Sun does not rise Sun does not rise
Astronomical Twilight Sun does not rise Sun does not rise
Moon 8:38 AM CEST 9:46 PM CEST
Length of Visible Light 22h 55m
Length of Day
18h 57m
Tomorrow will be 7m 57s shorter.
Waxing Crescent, 13% of the Moon is Illuminated
Today
Waxing Crescent
Aug 3
First Quarter
Aug 10
Full
Aug 17
Last Quarter
Aug 25
New

Today's Extremes

Country Highs Country Lows

Community

WunderPhotos

Upload Photos

1,739,178 photos uploaded!

WunderBlogs® & News

By Dr. Jeff Masters
Director of Meteorology, Weather Underground
By Kari Strenfel
Meteorologist, Weather Underground
By Christopher C. Burt
Weather Historian, Weather Underground
July 30, 2014
July 30, 2014
July 30, 2014

Nearby

Snow Depth

Not available.

Earthquake Activity

City Distance Mag. Time & Date
No recent earthquake activity has been reported nearby.
Minimum magnitude displayed is 2.5.

Coastal Water Temperatures

Place Temperature
No Stations Reporting

Nearby Weather Stations

There are no personal weather stations in this area.